X  Zamknij Lotniskowe dane METAR     LBPD Plovdiv International Airport
Temperatura
17°C Temperatura
8°C Punkt rosy
56% Wilgotność



Wiatr
3 KM/H
2 MPH
1 M/S
2 KTS



Cisza
N
Warunki bieżące

Częściowe zachmurzenie Częściowe zachmurzenie
Ciśnienie 1013.88 (hPa) - 29.94 (inHg)
Widoczność 6 (mil) - 9.7 (km)
Lotnisko
Kod lotniska LBPD

Położenie: Plovdiv International Airport
Odległość: 14 (km)

Metar:
LBPD 251400Z AUTO VRB02KT 9999 FEW050/// BKN069/// 17/08 Q1014 NOSIG

Czas: 25-02-2024 16:00 EET